Tipton, Michigan
Current Conditions -  °F | °C
As of 4:53 PM on Thursday 23 Oct 2014 (Local Time) from KADG Reporting Station
Clear Clear  
Wind Chill: 57°   Ceiling: Unl
Heat Index: 57°   Visibility: 10mi
Dew Point: 36°   Wind: 9mph
Humidity: 45%   Direction: 280°W
Pressure: 30.14"   Gusts: NA
Location:  42.02°N, 84.06°W
Report Text: KADG 232053Z AUTO 28008KT 10SM CLR 14/02 A3014 RMK AO2 SLP214 T01390022 56019
Loading
Personal Weather Stations






























Interactive Weather Map
Tropical Storm Tracking
New forecast layout! Learn more

10-Day Weather Forecast

Advertisements
Track Severe Weather on mobile